Big Brook, New York
Current Conditions -  °F | °C
As of 9:24 AM on Friday 19 Dec 2014 (Local Time) from KRME Reporting Station
Light Snow Light Snow  
Wind Chill: 13°   Ceiling: 2500
Heat Index: 25°   Visibility: 7mi
Dew Point: 21°   Wind: 14mph
Humidity: 85%   Direction: 280°W
Pressure: 30.12"   Gusts: NA
Location:  43.3503°N, 75.3224°W
Report Text: KRME 191424Z 28012KT 7SM -SN BKN025 OVC030 M04/M06 A3012 RMK AO2 P0000 T10391061
Loading
Personal Weather Stations






























Interactive Weather Map New forecast layout! Learn more

10-Day Weather Forecast

Advertisements
Track Severe Weather on mobile